Terminal Aerodrome Forecast
Issued by NWS Upton, NY

Home | Current Version | Previous Version | Text Only | Print | Product List | Glossary On
Versions: 1 2 3 4 5 6 7 8 9 10 11 12 13 14 15 16 17 18 19 20 21 22 23 24 25 26 27 28 29 30 31 32 33 34
000
FTUS41 KOKX 171700
TAFJFK
TAF
KJFK 171738Z 1718/1824 22006KT P6SM FEW050
     FM171900 18008KT P6SM FEW050 FEW250
     FM180200 21005KT P6SM FEW070 FEW250
     FM180600 28004KT P6SM FEW070 SCT250
     FM181200 35007KT P6SM FEW050 SCT250
     FM181900 31007KT P6SM FEW050 SCT250=

USA.gov is the U.S. government's official web portal to all federal, state and local government web resources and services.